Time;durP1;ratioP1;P1;durP2;ratioP2;P2;SDS_P1;SDS_P2;PMS_P1;PMS_P2;Temp;Humidity;BMP_temperature;BMP_pressure;BME280_temperature;BME280_humidity;BME280_pressure;Samples;Min_cycle;Max_cycle;Signal;HPM_P1;HPM_P2
2024/01/24 00:02:06;;;;;;;5.28;4.65;;;10.40;99.90;;;;;;4981203;28;20061;-73
2024/01/24 00:04:33;;;;;;;4.30;4.10;;;10.30;99.90;;;;;;4973161;28;20046;-75
2024/01/24 00:06:59;;;;;;;7.45;4.55;;;10.40;99.90;;;;;;4968839;28;20097;-74
2024/01/24 00:09:26;;;;;;;4.20;3.88;;;10.50;99.90;;;;;;4969837;28;20050;-74
2024/01/24 00:11:53;;;;;;;4.95;4.53;;;10.60;99.90;;;;;;4974840;28;20057;-74
2024/01/24 00:14:20;;;;;;;5.63;4.40;;;10.60;99.90;;;;;;4969997;28;20046;-74
2024/01/24 00:16:46;;;;;;;5.22;4.85;;;10.70;99.90;;;;;;4972987;28;20046;-73
2024/01/24 00:19:13;;;;;;;4.85;4.57;;;10.70;99.90;;;;;;4968833;28;20050;-74
2024/01/24 00:21:40;;;;;;;5.22;4.82;;;10.70;99.90;;;;;;4970731;28;20125;-74
2024/01/24 00:24:07;;;;;;;5.38;4.97;;;10.80;99.90;;;;;;4969437;28;20101;-76
2024/01/24 00:26:37;;;;;;;5.20;4.90;;;10.80;99.90;;;;;;4970556;28;20561;-74
2024/01/24 00:29:04;;;;;;;5.50;5.13;;;10.80;99.90;;;;;;4984416;28;20054;-76
2024/01/24 00:31:31;;;;;;;4.30;4.00;;;10.90;99.90;;;;;;4971722;28;20588;-75
2024/01/24 00:33:58;;;;;;;3.70;3.40;;;10.80;99.90;;;;;;4975230;28;20145;-76
2024/01/24 00:36:26;;;;;;;3.28;3.03;;;10.80;99.90;;;;;;4956910;28;22828;-77
2024/01/24 00:38:53;;;;;;;4.53;2.92;;;10.70;99.90;;;;;;4953650;28;20143;-76
2024/01/24 00:41:20;;;;;;;2.50;2.30;;;10.60;99.90;;;;;;4944224;28;20153;-76
2024/01/24 00:43:46;;;;;;;2.20;2.00;;;10.50;99.90;;;;;;4968124;28;20062;-76
2024/01/24 00:46:13;;;;;;;4.03;2.58;;;10.50;99.90;;;;;;4975197;28;20081;-76
2024/01/24 00:48:40;;;;;;;2.20;1.70;;;10.40;99.90;;;;;;4969795;28;20096;-76
2024/01/24 00:51:07;;;;;;;2.92;2.13;;;10.40;99.90;;;;;;4964828;28;20104;-76
2024/01/24 00:53:36;;;;;;;2.13;1.45;;;10.50;99.90;;;;;;4987086;28;20057;-76
2024/01/24 00:56:04;;;;;;;3.75;1.60;;;10.50;99.90;;;;;;4963879;28;20095;-77
2024/01/24 00:58:30;;;;;;;4.30;2.33;;;10.50;99.90;;;;;;4955175;28;20054;-78
2024/01/24 01:00:58;;;;;;;4.15;1.75;;;10.50;99.90;;;;;;4963012;28;20569;-77
2024/01/24 01:03:25;;;;;;;2.15;1.30;;;10.50;99.90;;;;;;4972966;28;20101;-76
2024/01/24 01:05:51;;;;;;;3.47;1.98;;;10.60;99.90;;;;;;4980844;28;20783;-77
2024/01/24 01:08:18;;;;;;;1.90;1.70;;;10.60;99.90;;;;;;4931496;28;20046;-74
2024/01/24 01:10:45;;;;;;;2.00;1.80;;;10.70;99.90;;;;;;4957876;28;20576;-75
2024/01/24 01:13:12;;;;;;;3.13;1.80;;;10.70;99.90;;;;;;4969942;28;20046;-74
2024/01/24 01:15:38;;;;;;;2.55;2.03;;;10.80;99.90;;;;;;4965070;28;20337;-76
2024/01/24 01:18:05;;;;;;;2.22;2.03;;;10.80;99.90;;;;;;4971465;28;20133;-74
2024/01/24 01:20:32;;;;;;;5.47;2.20;;;10.80;99.90;;;;;;4957897;28;20153;-74
2024/01/24 01:22:59;;;;;;;2.55;2.45;;;10.90;99.90;;;;;;4969435;28;20046;-75
2024/01/24 01:25:26;;;;;;;2.40;2.30;;;11.00;99.90;;;;;;4980901;28;20057;-75
2024/01/24 01:27:52;;;;;;;3.10;2.80;;;11.00;99.90;;;;;;4976320;28;20136;-73
2024/01/24 01:30:20;;;;;;;3.28;3.08;;;11.10;99.90;;;;;;4964708;28;20058;-74
2024/01/24 01:32:47;;;;;;;3.30;3.10;;;11.20;99.90;;;;;;4972010;28;20212;-75
2024/01/24 01:35:14;;;;;;;3.67;3.50;;;11.20;99.90;;;;;;4969155;28;20205;-74
2024/01/24 01:37:41;;;;;;;3.75;3.40;;;11.20;99.90;;;;;;4977338;28;20149;-75
2024/01/24 01:40:11;;;;;;;3.40;3.10;;;11.20;99.90;;;;;;4975758;28;20054;-76
2024/01/24 01:42:43;;;;;;;3.38;3.17;;;11.10;99.90;;;;;;4968869;28;20081;-75
2024/01/24 01:45:11;;;;;;;3.70;3.20;;;11.10;99.90;;;;;;4976573;28;20074;-74
2024/01/24 01:47:39;;;;;;;3.38;2.97;;;11.10;99.90;;;;;;4975611;28;20077;-75
2024/01/24 01:50:10;;;;;;;3.20;3.10;;;11.20;99.90;;;;;;4969557;28;20057;-75
2024/01/24 01:52:38;;;;;;;3.50;3.30;;;11.20;99.90;;;;;;4933045;28;20561;-74
2024/01/24 01:55:06;;;;;;;3.40;3.30;;;11.30;99.90;;;;;;4947800;28;20057;-75
2024/01/24 01:57:34;;;;;;;3.33;3.22;;;11.30;99.90;;;;;;4970172;28;20997;-75
2024/01/24 02:00:05;;;;;;;3.00;2.80;;;11.20;99.90;;;;;;4964674;28;20053;-75
2024/01/24 02:02:32;;;;;;;3.13;2.83;;;11.20;99.90;;;;;;4963071;28;20144;-75
2024/01/24 02:04:59;;;;;;;3.00;2.90;;;11.30;99.90;;;;;;4984160;28;20034;-75
2024/01/24 02:07:26;;;;;;;3.30;3.00;;;11.30;99.90;;;;;;4959107;28;20194;-75
2024/01/24 02:09:54;;;;;;;3.08;2.97;;;11.20;99.90;;;;;;4971209;28;20504;-74
2024/01/24 02:12:21;;;;;;;2.67;2.58;;;11.20;99.90;;;;;;4963847;28;20054;-75
2024/01/24 02:14:48;;;;;;;3.25;3.00;;;11.20;99.90;;;;;;4967178;28;20096;-75
2024/01/24 02:17:14;;;;;;;3.13;2.70;;;11.30;99.90;;;;;;4966239;28;20089;-75
2024/01/24 02:19:41;;;;;;;3.15;3.05;;;11.30;99.90;;;;;;4985730;28;20042;-75
2024/01/24 02:22:08;;;;;;;3.40;3.20;;;11.40;99.90;;;;;;4984148;28;20093;-75
2024/01/24 02:24:34;;;;;;;5.70;3.20;;;11.50;99.90;;;;;;4968216;28;20038;-75
2024/01/24 02:27:01;;;;;;;3.10;3.00;;;11.40;99.90;;;;;;4966835;28;20195;-75
2024/01/24 02:29:28;;;;;;;3.50;3.20;;;11.40;99.90;;;;;;4970440;28;20054;-76
2024/01/24 02:31:55;;;;;;;3.60;3.50;;;11.50;99.90;;;;;;4974057;28;20046;-75
2024/01/24 02:34:22;;;;;;;3.63;3.42;;;11.60;99.90;;;;;;4970906;28;20049;-75
2024/01/24 02:36:49;;;;;;;4.07;3.78;;;11.60;99.90;;;;;;4955184;28;20070;-75
2024/01/24 02:39:17;;;;;;;7.22;4.20;;;11.60;99.90;;;;;;4950347;28;20129;-75
2024/01/24 02:41:45;;;;;;;9.32;4.00;;;11.60;99.90;;;;;;4969931;28;20039;-76
2024/01/24 02:44:12;;;;;;;3.53;3.28;;;11.50;99.90;;;;;;4974630;28;20050;-75
2024/01/24 02:46:39;;;;;;;5.53;4.90;;;11.50;99.90;;;;;;4977642;28;20058;-76
2024/01/24 02:49:05;;;;;;;6.97;6.13;;;11.40;99.90;;;;;;4976501;28;20054;-76
2024/01/24 02:51:32;;;;;;;10.05;9.20;;;11.40;99.90;;;;;;4972922;28;20043;-75
2024/01/24 02:54:02;;;;;;;13.35;12.45;;;11.30;99.90;;;;;;4953518;28;20101;-76
2024/01/24 02:56:29;;;;;;;13.40;11.80;;;11.30;99.90;;;;;;4964774;28;20132;-74
2024/01/24 02:58:55;;;;;;;12.10;11.07;;;11.20;99.90;;;;;;4977157;28;20042;-76
2024/01/24 03:01:22;;;;;;;12.15;10.98;;;11.20;99.90;;;;;;4970715;28;20038;-75
2024/01/24 03:03:49;;;;;;;12.20;11.18;;;11.20;99.90;;;;;;4973771;28;20060;-75
2024/01/24 03:06:16;;;;;;;10.77;10.02;;;11.20;99.90;;;;;;4967450;28;20077;-74
2024/01/24 03:08:58;;;;;;;9.90;9.10;;;11.20;99.90;;;;;;4970989;28;20129;-75
2024/01/24 03:11:25;;;;;;;9.73;8.73;;;11.30;99.90;;;;;;4982055;28;20557;-75
2024/01/24 03:13:51;;;;;;;10.15;9.13;;;11.20;99.90;;;;;;4971644;28;20074;-75
2024/01/24 03:16:18;;;;;;;13.90;10.02;;;11.20;99.90;;;;;;4966137;28;20410;-75
2024/01/24 03:18:47;;;;;;;8.55;7.85;;;11.20;99.90;;;;;;4975564;28;20050;-75
2024/01/24 03:21:18;;;;;;;11.38;8.88;;;11.20;99.90;;;;;;4986158;28;20042;-75
2024/01/24 03:23:45;;;;;;;10.77;7.88;;;11.20;99.90;;;;;;4974753;28;20046;-75
2024/01/24 03:26:14;;;;;;;7.70;6.65;;;11.20;99.90;;;;;;4977232;28;20042;-75
2024/01/24 03:28:41;;;;;;;9.65;6.40;;;11.20;99.90;;;;;;4972090;28;20051;-75
2024/01/24 03:31:08;;;;;;;8.00;6.10;;;11.30;99.90;;;;;;4968126;28;20058;-75
2024/01/24 03:33:38;;;;;;;8.75;5.10;;;11.30;99.90;;;;;;4954835;28;20458;-75
2024/01/24 03:36:08;;;;;;;5.68;3.92;;;11.20;99.90;;;;;;4950635;28;20043;-75
2024/01/24 03:38:35;;;;;;;4.93;4.53;;;11.30;99.90;;;;;;4950765;28;20046;-75
2024/01/24 03:41:02;;;;;;;7.85;4.63;;;11.30;99.90;;;;;;4955694;28;20046;-75
2024/01/24 03:43:29;;;;;;;3.45;2.90;;;11.30;99.90;;;;;;4964620;28;21126;-75
2024/01/24 03:45:55;;;;;;;3.97;2.83;;;11.40;99.90;;;;;;4970072;28;20296;-75
2024/01/24 03:48:23;;;;;;;5.03;3.08;;;11.50;99.90;;;;;;4967097;28;20127;-73
2024/01/24 03:50:52;;;;;;;6.65;2.90;;;11.60;99.90;;;;;;4964483;28;20069;-75
2024/01/24 03:53:19;;;;;;;5.20;2.60;;;11.60;99.90;;;;;;4959724;28;20577;-74
2024/01/24 03:55:45;;;;;;;3.88;2.70;;;11.70;99.90;;;;;;4965727;28;20034;-75
2024/01/24 03:58:12;;;;;;;3.00;2.80;;;11.80;99.90;;;;;;4970927;28;20043;-75
2024/01/24 04:00:39;;;;;;;3.03;2.83;;;11.90;99.90;;;;;;4970031;28;20046;-75
2024/01/24 04:03:06;;;;;;;3.75;3.20;;;12.00;99.90;;;;;;4970717;28;20082;-75
2024/01/24 04:05:33;;;;;;;3.80;3.50;;;12.00;99.90;;;;;;4969684;28;20046;-76
2024/01/24 04:08:00;;;;;;;3.70;3.38;;;12.00;99.90;;;;;;4978618;28;20050;-77
2024/01/24 04:10:28;;;;;;;4.30;3.65;;;12.00;99.90;;;;;;4975454;28;20571;-76
2024/01/24 04:12:55;;;;;;;3.90;3.70;;;12.10;99.90;;;;;;4988908;28;20666;-74
2024/01/24 04:15:22;;;;;;;4.30;3.90;;;12.10;99.90;;;;;;4966236;28;20565;-75
2024/01/24 04:17:49;;;;;;;4.25;4.05;;;12.20;99.90;;;;;;4989057;28;20129;-76
2024/01/24 04:20:16;;;;;;;4.28;3.90;;;12.20;99.90;;;;;;4967878;28;20666;-74
2024/01/24 04:22:42;;;;;;;4.15;3.95;;;12.30;99.90;;;;;;4949485;28;20039;-75
2024/01/24 04:25:09;;;;;;;4.07;3.78;;;12.40;99.90;;;;;;4950101;28;20597;-75
2024/01/24 04:27:36;;;;;;;4.00;3.60;;;12.30;99.90;;;;;;4950724;28;20061;-76
2024/01/24 04:30:04;;;;;;;3.03;2.92;;;12.30;99.90;;;;;;4952985;28;20034;-75
2024/01/24 04:32:31;;;;;;;4.07;3.03;;;12.10;99.90;;;;;;4958271;28;20138;-75
2024/01/24 04:34:58;;;;;;;3.08;2.85;;;12.10;99.90;;;;;;4968755;28;20055;-76
2024/01/24 04:37:26;;;;;;;2.80;2.60;;;12.00;99.90;;;;;;4945244;28;20070;-76
2024/01/24 04:39:53;;;;;;;2.97;2.78;;;12.00;99.90;;;;;;4968915;28;20514;-75
2024/01/24 04:42:20;;;;;;;3.05;2.78;;;12.10;99.90;;;;;;4974430;28;20188;-76
2024/01/24 04:44:46;;;;;;;5.13;2.58;;;12.20;99.90;;;;;;4970948;28;20132;-76
2024/01/24 04:47:13;;;;;;;3.45;2.70;;;12.10;99.90;;;;;;4959564;28;20049;-76
2024/01/24 04:49:43;;;;;;;2.83;2.63;;;12.00;99.90;;;;;;4959352;28;20066;-76
2024/01/24 04:52:13;;;;;;;2.08;1.98;;;12.00;99.90;;;;;;4958306;28;20165;-76
2024/01/24 04:54:41;;;;;;;3.90;3.20;;;11.90;99.90;;;;;;4970413;28;20046;-77
2024/01/24 04:57:08;;;;;;;4.68;3.95;;;12.00;99.90;;;;;;4975002;28;20054;-75
2024/01/24 04:59:35;;;;;;;4.10;3.80;;;12.20;99.90;;;;;;4969568;28;20116;-76
2024/01/24 05:02:19;;;;;;;5.43;3.22;;;12.10;99.90;;;;;;4965689;28;20042;-75
2024/01/24 05:04:47;;;;;;;2.95;2.75;;;12.00;99.90;;;;;;4963898;28;20057;-75
2024/01/24 05:07:14;;;;;;;2.70;2.20;;;11.90;99.90;;;;;;4967911;28;20084;-76
2024/01/24 05:09:40;;;;;;;2.95;2.47;;;11.80;99.90;;;;;;4963898;28;20046;-76
2024/01/24 05:12:07;;;;;;;3.70;2.70;;;11.70;99.90;;;;;;4970000;28;20057;-76
2024/01/24 05:14:34;;;;;;;6.80;3.42;;;11.50;99.90;;;;;;4964519;28;20095;-75
2024/01/24 05:17:01;;;;;;;6.07;4.35;;;11.30;99.90;;;;;;4955488;28;20034;-76
2024/01/24 05:19:28;;;;;;;4.93;4.35;;;11.30;99.90;;;;;;4961835;28;20121;-76
2024/01/24 05:21:55;;;;;;;3.33;3.08;;;11.20;99.90;;;;;;4971692;28;20042;-74
2024/01/24 05:24:22;;;;;;;2.58;2.10;;;11.30;99.90;;;;;;4965271;28;20137;-74
2024/01/24 05:26:48;;;;;;;2.85;2.65;;;11.40;99.90;;;;;;4980499;28;20042;-75
2024/01/24 05:29:15;;;;;;;3.15;2.95;;;11.40;99.90;;;;;;4965149;28;20053;-75
2024/01/24 05:31:42;;;;;;;2.65;2.45;;;11.50;99.90;;;;;;4965522;28;20109;-75
2024/01/24 05:34:09;;;;;;;3.15;2.85;;;11.50;99.90;;;;;;4969043;28;20043;-75
2024/01/24 05:36:36;;;;;;;3.17;3.00;;;11.60;99.90;;;;;;4953737;28;20669;-77
2024/01/24 05:39:06;;;;;;;4.00;3.75;;;11.70;99.90;;;;;;4956457;28;20039;-75
2024/01/24 05:41:35;;;;;;;4.88;4.57;;;11.80;99.90;;;;;;4948189;28;20051;-75
2024/01/24 05:44:02;;;;;;;5.40;5.20;;;11.70;99.90;;;;;;4951240;28;20121;-75
2024/01/24 05:46:28;;;;;;;5.80;5.43;;;11.70;99.90;;;;;;4948527;28;20126;-75
2024/01/24 05:48:56;;;;;;;6.50;5.50;;;11.60;99.90;;;;;;4942715;28;20074;-74
2024/01/24 05:51:23;;;;;;;6.07;5.53;;;11.60;99.90;;;;;;4961550;28;20134;-76
2024/01/24 05:53:49;;;;;;;6.25;5.70;;;11.60;99.90;;;;;;4965772;28;20144;-76
2024/01/24 05:56:16;;;;;;;6.60;6.03;;;11.50;99.90;;;;;;4978805;28;20556;-75
2024/01/24 05:58:43;;;;;;;6.53;6.10;;;11.50;99.90;;;;;;4994889;28;20043;-76
2024/01/24 06:01:10;;;;;;;6.10;5.70;;;11.60;99.90;;;;;;4979684;28;20663;-74
2024/01/24 06:03:37;;;;;;;8.73;7.65;;;11.50;99.90;;;;;;4961652;28;20138;-75
2024/01/24 06:06:04;;;;;;;8.38;7.65;;;11.50;99.90;;;;;;4953536;28;20045;-75
2024/01/24 06:08:31;;;;;;;8.82;8.15;;;11.50;99.90;;;;;;4955237;28;20085;-75
2024/01/24 06:10:58;;;;;;;7.82;7.32;;;11.50;99.90;;;;;;4940141;28;20046;-75
2024/01/24 06:13:27;;;;;;;8.40;7.70;;;11.40;99.90;;;;;;4951278;28;21246;-74
2024/01/24 06:15:54;;;;;;;6.85;6.50;;;11.40;99.90;;;;;;4954312;28;20530;-75
2024/01/24 06:18:21;;;;;;;9.65;7.75;;;11.40;99.90;;;;;;4967487;28;20426;-75
2024/01/24 06:20:48;;;;;;;7.97;7.47;;;11.40;99.90;;;;;;4959881;28;20057;-75
2024/01/24 06:23:15;;;;;;;8.10;7.57;;;11.50;99.90;;;;;;4957915;28;20034;-76
2024/01/24 06:25:42;;;;;;;9.20;8.60;;;11.40;99.90;;;;;;4954683;28;20034;-75
2024/01/24 06:28:09;;;;;;;11.27;10.27;;;11.40;99.90;;;;;;4977956;28;20051;-75
2024/01/24 06:30:36;;;;;;;10.30;9.70;;;11.50;99.90;;;;;;4972134;28;20046;-75
2024/01/24 06:33:03;;;;;;;10.70;9.35;;;11.50;99.90;;;;;;4962266;28;20525;-75
2024/01/24 06:35:31;;;;;;;12.00;9.57;;;11.50;99.90;;;;;;4969799;28;20534;-75
2024/01/24 06:37:58;;;;;;;10.07;9.27;;;11.50;99.90;;;;;;4950696;28;20088;-76
2024/01/24 06:40:25;;;;;;;12.48;10.00;;;11.50;99.90;;;;;;4955188;28;20049;-76
2024/01/24 06:42:51;;;;;;;10.90;10.02;;;11.50;99.90;;;;;;4973130;28;20143;-75
2024/01/24 06:45:19;;;;;;;10.88;9.88;;;11.50;99.90;;;;;;4965408;28;20047;-74
2024/01/24 06:47:46;;;;;;;10.65;9.90;;;11.50;99.90;;;;;;4934692;28;20054;-76
2024/01/24 06:50:13;;;;;;;9.93;9.13;;;11.40;99.90;;;;;;4958545;28;20065;-75
2024/01/24 06:52:40;;;;;;;12.77;9.93;;;11.30;99.90;;;;;;4970876;28;20046;-75
2024/01/24 06:55:08;;;;;;;17.00;9.57;;;11.30;99.90;;;;;;4974927;28;20074;-75
2024/01/24 06:57:35;;;;;;;13.25;7.13;;;11.30;99.90;;;;;;4981761;28;20056;-75
2024/01/24 07:00:04;;;;;;;9.60;6.60;;;11.00;99.90;;;;;;4976081;28;20048;-75
2024/01/24 07:02:32;;;;;;;9.57;6.85;;;10.80;99.90;;;;;;4966572;28;20066;-76
2024/01/24 07:04:58;;;;;;;11.98;6.00;;;10.60;99.90;;;;;;4973885;28;20066;-77
2024/01/24 07:07:27;;;;;;;18.50;5.97;;;10.40;99.90;;;;;;4954974;28;20097;-75
2024/01/24 07:09:54;;;;;;;15.82;5.25;;;10.00;99.90;;;;;;4972307;28;20096;-75
2024/01/24 07:12:21;;;;;;;14.50;5.22;;;9.90;99.90;;;;;;4949906;28;20046;-74
2024/01/24 07:14:48;;;;;;;15.15;5.45;;;9.90;99.90;;;;;;4949914;28;20380;-76
2024/01/24 07:17:18;;;;;;;12.40;4.78;;;9.90;99.90;;;;;;4963470;28;20065;-76
2024/01/24 07:19:45;;;;;;;18.63;5.60;;;9.90;99.90;;;;;;4945843;28;20051;-74
2024/01/24 07:22:12;;;;;;;17.17;6.95;;;10.00;99.90;;;;;;4971120;28;20051;-75
2024/01/24 07:24:44;;;;;;;17.98;8.60;;;9.90;99.90;;;;;;4967485;28;22360;-76
2024/01/24 07:27:10;;;;;;;21.63;12.30;;;10.00;99.90;;;;;;4976317;28;20057;-75
2024/01/24 07:29:37;;;;;;;21.25;11.90;;;10.00;99.90;;;;;;4969517;28;20670;-75
2024/01/24 07:32:04;;;;;;;19.17;11.27;;;10.10;99.90;;;;;;4978967;28;20525;-75
2024/01/24 07:34:31;;;;;;;20.38;11.75;;;10.10;99.90;;;;;;4963477;28;20061;-73
2024/01/24 07:36:58;;;;;;;23.00;12.90;;;10.10;99.90;;;;;;4971648;28;20049;-75
2024/01/24 07:39:25;;;;;;;29.38;14.15;;;10.10;99.90;;;;;;4978492;28;20053;-74
2024/01/24 07:41:52;;;;;;;23.38;15.00;;;10.20;99.90;;;;;;4973314;28;20221;-75
2024/01/24 07:44:19;;;;;;;24.42;13.57;;;10.20;99.90;;;;;;4950734;28;20487;-75
2024/01/24 07:46:46;;;;;;;29.65;14.40;;;10.20;99.90;;;;;;4963593;28;20046;-76
2024/01/24 07:49:13;;;;;;;37.38;16.17;;;10.20;99.90;;;;;;4972769;28;20081;-75
2024/01/24 07:51:41;;;;;;;22.88;15.50;;;10.20;99.90;;;;;;4960402;28;20139;-75
2024/01/24 07:54:08;;;;;;;31.83;17.85;;;10.20;99.90;;;;;;4973062;28;20050;-75
2024/01/24 07:56:35;;;;;;;29.55;16.13;;;10.20;99.90;;;;;;4968573;28;20050;-75
2024/01/24 07:59:04;;;;;;;34.92;16.88;;;10.10;99.90;;;;;;4973301;28;20034;-73
2024/01/24 08:01:31;;;;;;;31.20;18.70;;;10.10;99.90;;;;;;4971575;28;20129;-74
2024/01/24 08:04:01;;;;;;;31.25;20.38;;;10.00;99.90;;;;;;4972936;28;20057;-74
2024/01/24 08:06:28;;;;;;;23.77;20.63;;;10.00;99.90;;;;;;4969761;28;20526;-75
2024/01/24 08:08:55;;;;;;;24.92;21.08;;;9.90;99.90;;;;;;4973391;28;20051;-76
2024/01/24 08:11:24;;;;;;;30.25;20.10;;;9.80;99.90;;;;;;4978132;28;20037;-77
2024/01/24 08:13:51;;;;;;;26.05;18.00;;;9.80;99.90;;;;;;4968651;28;20058;-74
2024/01/24 08:16:18;;;;;;;28.15;18.48;;;9.80;99.90;;;;;;4967634;28;20050;-75
2024/01/24 08:18:45;;;;;;;32.25;20.38;;;9.80;99.90;;;;;;4981106;28;20042;-76
2024/01/24 08:21:13;;;;;;;28.90;20.85;;;9.90;99.90;;;;;;4969766;28;20039;-77
2024/01/24 08:23:40;;;;;;;35.00;23.48;;;9.90;99.90;;;;;;4970086;28;20718;-76
2024/01/24 08:26:17;;;;;;;28.95;24.23;;;10.00;99.90;;;;;;4974507;28;20130;-77
2024/01/24 08:28:44;;;;;;;48.95;25.85;;;10.10;99.90;;;;;;4950610;28;20730;-76
2024/01/24 08:31:11;;;;;;;30.75;27.48;;;10.20;99.90;;;;;;4969159;28;20047;-75
2024/01/24 08:33:39;;;;;;;33.50;26.30;;;10.00;99.90;;;;;;4952835;28;20138;-76
2024/01/24 08:36:06;;;;;;;29.83;17.60;;;9.90;99.90;;;;;;4964365;28;20050;-75
2024/01/24 08:38:33;;;;;;;33.20;18.13;;;9.80;99.90;;;;;;4949176;28;20054;-74
2024/01/24 08:41:00;;;;;;;28.25;18.23;;;9.70;99.90;;;;;;4965046;28;20100;-75
2024/01/24 08:43:27;;;;;;;32.75;17.90;;;9.70;99.90;;;;;;4971852;28;20161;-75
2024/01/24 08:45:54;;;;;;;34.25;13.77;;;9.70;99.90;;;;;;4965390;28;20049;-77
2024/01/24 08:48:21;;;;;;;33.13;9.73;;;9.50;99.90;;;;;;4971692;28;20050;-76
2024/01/24 08:50:49;;;;;;;42.45;9.50;;;9.30;99.90;;;;;;4968788;28;20046;-77
2024/01/24 08:53:16;;;;;;;31.92;11.00;;;9.20;99.90;;;;;;4977990;28;20042;-77
2024/01/24 08:55:43;;;;;;;37.42;10.55;;;9.20;99.90;;;;;;4973370;28;20050;-75
2024/01/24 08:58:10;;;;;;;26.65;10.23;;;9.20;99.90;;;;;;4979484;28;20064;-76
2024/01/24 09:00:38;;;;;;;32.85;12.10;;;9.20;99.90;;;;;;4968165;28;20117;-75
2024/01/24 09:03:05;;;;;;;30.27;14.63;;;9.30;99.90;;;;;;4982603;28;20101;-77
2024/01/24 09:05:32;;;;;;;36.83;17.15;;;9.40;99.90;;;;;;4988842;28;20170;-76
2024/01/24 09:08:08;;;;;;;40.50;17.85;;;9.50;99.90;;;;;;4996541;28;20034;-76
2024/01/24 09:10:36;;;;;;;40.70;19.95;;;9.60;99.90;;;;;;5000758;28;20073;-75
2024/01/24 09:13:03;;;;;;;40.58;19.80;;;9.60;99.90;;;;;;4957629;28;20078;-75
2024/01/24 09:15:30;;;;;;;38.22;18.67;;;9.60;99.90;;;;;;4970541;28;20042;-76
2024/01/24 09:18:01;;;;;;;34.17;20.20;;;9.60;99.90;;;;;;4970455;28;20169;-77
2024/01/24 09:20:28;;;;;;;34.50;18.00;;;9.70;99.90;;;;;;4987826;28;20113;-77
2024/01/24 09:22:55;;;;;;;49.00;21.80;;;9.70;99.90;;;;;;4955471;28;20043;-77
2024/01/24 09:25:22;;;;;;;34.58;19.95;;;9.80;99.90;;;;;;4959095;28;20045;-76
2024/01/24 09:27:49;;;;;;;40.10;21.88;;;9.80;99.90;;;;;;4958448;28;20138;-76
2024/01/24 09:30:16;;;;;;;36.47;21.60;;;9.80;99.90;;;;;;4955023;28;20046;-77
2024/01/24 09:32:43;;;;;;;37.17;21.98;;;9.80;99.90;;;;;;4967592;28;20626;-76
2024/01/24 09:35:10;;;;;;;32.05;22.00;;;9.80;99.90;;;;;;4965557;28;20125;-77
2024/01/24 09:37:37;;;;;;;39.50;23.58;;;9.80;99.90;;;;;;4974311;28;20054;-76
2024/01/24 09:40:06;;;;;;;48.35;22.90;;;9.80;99.90;;;;;;4972547;28;20046;-77
2024/01/24 09:42:41;;;;;;;39.80;22.33;;;9.80;99.90;;;;;;4934804;28;20118;-77
2024/01/24 09:45:09;;;;;;;45.67;23.05;;;9.80;99.90;;;;;;4942782;28;20059;-76
2024/01/24 09:47:37;;;;;;;39.20;22.23;;;9.80;99.90;;;;;;4945146;28;20055;-76
2024/01/24 09:50:05;;;;;;;31.90;22.98;;;9.80;99.90;;;;;;4949704;28;20050;-76
2024/01/24 09:52:32;;;;;;;39.95;24.85;;;9.80;99.90;;;;;;4970782;28;20104;-76
2024/01/24 09:55:04;;;;;;;39.05;25.80;;;9.80;99.90;;;;;;4965132;28;20138;-77
2024/01/24 09:57:32;;;;;;;36.22;26.23;;;9.80;99.90;;;;;;4969554;28;20057;-77
2024/01/24 09:59:59;;;;;;;41.65;26.58;;;9.80;99.90;;;;;;4970345;28;20043;-75
2024/01/24 10:02:30;;;;;;;49.25;27.10;;;9.90;99.90;;;;;;4969066;28;20784;-76
2024/01/24 10:04:59;;;;;;;34.42;27.30;;;9.90;99.90;;;;;;4965039;28;20038;-76
2024/01/24 10:07:28;;;;;;;39.10;27.27;;;9.90;99.90;;;;;;4962471;28;20050;-78
2024/01/24 10:10:07;;;;;;;36.75;26.45;;;9.90;99.90;;;;;;4969608;28;20042;-76
2024/01/24 10:12:34;;;;;;;43.78;28.23;;;9.90;99.90;;;;;;4964074;28;20066;-76
2024/01/24 10:15:01;;;;;;;41.45;27.98;;;9.90;99.90;;;;;;4963225;28;20180;-76
2024/01/24 10:17:30;;;;;;;40.08;28.75;;;9.90;99.90;;;;;;4962037;28;20066;-77
2024/01/24 10:19:58;;;;;;;54.25;28.77;;;9.90;99.90;;;;;;4963715;28;20050;-77
2024/01/24 10:22:25;;;;;;;47.70;30.20;;;9.80;99.90;;;;;;4953246;28;20045;-76
2024/01/24 10:24:55;;;;;;;39.75;27.25;;;9.80;99.90;;;;;;4949225;28;20701;-77
2024/01/24 10:27:23;;;;;;;47.88;28.00;;;9.90;99.90;;;;;;4955191;28;20053;-77
2024/01/24 10:29:52;;;;;;;42.53;29.27;;;9.80;99.90;;;;;;4981394;28;20537;-77
2024/01/24 10:32:20;;;;;;;44.55;29.13;;;9.80;99.90;;;;;;4967863;28;20034;-77
2024/01/24 10:34:49;;;;;;;39.85;29.45;;;9.80;99.90;;;;;;4970516;28;20514;-77
2024/01/24 10:37:18;;;;;;;43.72;29.15;;;9.80;99.90;;;;;;4985026;28;20043;-76
2024/01/24 10:39:50;;;;;;;37.45;29.95;;;9.80;99.90;;;;;;4971689;28;20050;-77
2024/01/24 10:42:20;;;;;;;41.15;29.55;;;9.80;99.90;;;;;;4988821;28;20118;-77
2024/01/24 10:44:51;;;;;;;35.30;29.83;;;9.80;99.90;;;;;;4965215;28;20107;-75
2024/01/24 10:47:19;;;;;;;41.13;28.35;;;9.80;99.90;;;;;;4949511;28;20046;-76
2024/01/24 10:49:48;;;;;;;36.13;29.48;;;9.80;99.90;;;;;;4950179;28;20042;-75
2024/01/24 10:52:16;;;;;;;54.58;31.60;;;9.70;99.90;;;;;;4954673;28;20053;-76
2024/01/24 10:54:47;;;;;;;37.58;26.25;;;9.80;99.90;;;;;;4949339;28;20055;-76
2024/01/24 10:57:18;;;;;;;30.90;27.85;;;9.80;99.90;;;;;;4986732;28;20706;-74
2024/01/24 10:59:49;;;;;;;45.17;28.58;;;9.80;99.90;;;;;;4956391;28;20151;-76
2024/01/24 11:02:16;;;;;;;42.63;28.20;;;9.80;99.90;;;;;;4986454;28;20049;-77
2024/01/24 11:04:44;;;;;;;47.20;29.00;;;9.80;99.90;;;;;;4973048;28;20042;-77
2024/01/24 11:07:19;;;;;;;48.55;30.30;;;9.80;99.90;;;;;;4972767;28;20080;-76
2024/01/24 11:10:20;;;;;;;53.35;29.45;;;9.80;99.90;;;;;;4978536;28;20050;-77
2024/01/24 11:12:48;;;;;;;50.42;29.85;;;9.80;99.90;;;;;;4970715;28;20112;-76
2024/01/24 11:15:15;;;;;;;48.95;30.75;;;9.80;99.90;;;;;;4971072;28;20684;-77
2024/01/24 11:17:45;;;;;;;50.22;32.47;;;9.80;99.90;;;;;;4951617;28;20050;-77
2024/01/24 11:20:12;;;;;;;41.97;29.15;;;9.80;99.90;;;;;;4976916;28;20052;-76
2024/01/24 11:22:39;;;;;;;33.03;28.05;;;9.80;99.90;;;;;;4970829;28;20047;-76
2024/01/24 11:25:11;;;;;;;39.50;28.15;;;9.80;99.90;;;;;;4966302;28;20042;-77
2024/01/24 11:27:43;;;;;;;38.20;28.63;;;9.80;99.90;;;;;;4965190;28;20049;-76
2024/01/24 11:30:37;;;;;;;45.90;30.10;;;9.80;99.90;;;;;;4968404;28;20042;-76
2024/01/24 11:33:04;;;;;;;36.33;30.08;;;9.80;99.90;;;;;;4957926;28;20048;-75
2024/01/24 11:35:41;;;;;;;47.55;30.30;;;9.80;99.90;;;;;;4964884;28;20414;-77
2024/01/24 11:38:22;;;;;;;46.20;28.95;;;9.70;99.90;;;;;;4953506;28;20066;-76
2024/01/24 11:41:01;;;;;;;41.25;28.90;;;9.70;99.90;;;;;;4969094;28;20047;-76
2024/01/24 11:43:33;;;;;;;40.33;29.35;;;9.70;99.90;;;;;;4980934;28;20727;-76
2024/01/24 11:46:08;;;;;;;46.65;30.83;;;9.80;99.90;;;;;;4965969;28;20049;-76
2024/01/24 11:48:37;;;;;;;39.10;31.05;;;9.70;99.90;;;;;;4967692;28;20054;-76
2024/01/24 11:51:09;;;;;;;44.28;33.00;;;9.80;99.90;;;;;;4967086;28;20069;-76
2024/01/24 11:53:36;;;;;;;40.83;27.77;;;9.70;99.90;;;;;;4971914;28;20077;-76
2024/01/24 11:56:07;;;;;;;37.70;29.80;;;9.70;99.90;;;;;;4973799;28;20097;-77
2024/01/24 11:58:34;;;;;;;34.75;30.92;;;9.80;99.90;;;;;;4981476;28;20138;-75
2024/01/24 12:01:03;;;;;;;42.67;31.35;;;9.80;99.90;;;;;;4961259;28;20050;-74
2024/01/24 12:03:31;;;;;;;44.22;30.63;;;9.70;99.90;;;;;;4967852;28;20041;-74
2024/01/24 12:05:59;;;;;;;45.72;30.98;;;9.70;99.90;;;;;;4976211;28;20150;-75
2024/01/24 12:08:28;;;;;;;57.78;30.17;;;9.60;99.90;;;;;;4965587;28;20045;-75
2024/01/24 12:10:54;;;;;;;36.95;29.63;;;9.70;99.90;;;;;;4965835;28;20619;-74
2024/01/24 12:13:23;;;;;;;42.30;30.33;;;9.70;99.90;;;;;;4966896;28;20590;-75
2024/01/24 12:15:55;;;;;;;44.20;28.70;;;9.70;99.90;;;;;;4964738;28;20046;-74
2024/01/24 12:18:22;;;;;;;37.10;28.58;;;9.60;99.90;;;;;;4970185;28;20129;-76
2024/01/24 12:20:52;;;;;;;45.80;28.48;;;9.60;99.90;;;;;;4967145;28;20522;-76
2024/01/24 12:23:23;;;;;;;42.95;29.27;;;9.60;99.90;;;;;;4982307;28;20481;-77
2024/01/24 12:25:50;;;;;;;43.92;29.85;;;9.70;99.90;;;;;;4964122;28;20042;-76
2024/01/24 12:28:17;;;;;;;41.70;31.23;;;9.70;99.90;;;;;;4971470;28;20057;-77
2024/01/24 12:30:49;;;;;;;39.97;28.30;;;9.70;99.90;;;;;;4966252;28;20049;-75
2024/01/24 12:33:18;;;;;;;40.67;27.30;;;9.70;99.90;;;;;;4973077;28;20050;-77
2024/01/24 12:35:52;;;;;;;44.40;28.65;;;9.70;99.90;;;;;;4964922;28;20163;-74
2024/01/24 12:38:19;;;;;;;32.47;28.08;;;9.70;99.90;;;;;;4953389;28;20062;-77
2024/01/24 12:40:51;;;;;;;43.15;29.05;;;9.60;99.90;;;;;;4962637;28;20054;-77
2024/01/24 12:43:21;;;;;;;39.25;28.70;;;9.70;99.90;;;;;;4962909;28;20511;-77
2024/01/24 12:45:50;;;;;;;38.10;26.65;;;9.70;99.90;;;;;;4966473;28;20097;-77